createdAt,value
2018-07-09T00:00:11.582Z,54.70
2018-07-09T00:02:40.403Z,55.10
2018-07-09T00:05:09.197Z,55.00
2018-07-09T00:07:38.287Z,55.40
2018-07-09T00:10:07.187Z,54.80
2018-07-09T00:12:36.010Z,54.50
2018-07-09T00:15:04.943Z,55.30
2018-07-09T00:17:33.736Z,55.20
2018-07-09T00:20:02.531Z,55.30
2018-07-09T00:22:31.364Z,54.90
2018-07-09T00:25:00.183Z,55.50
2018-07-09T00:27:29.049Z,55.70
2018-07-09T00:29:58.150Z,56.10
2018-07-09T00:32:26.975Z,55.80
2018-07-09T00:34:55.815Z,56.50
2018-07-09T00:37:24.732Z,56.80
2018-07-09T00:39:53.603Z,54.80
2018-07-09T00:42:22.587Z,54.70
2018-07-09T00:44:51.624Z,55.10
2018-07-09T00:47:20.410Z,54.10
2018-07-09T00:49:49.269Z,53.90
2018-07-09T00:54:46.869Z,53.20
2018-07-09T00:57:15.745Z,53.60
2018-07-09T00:59:44.606Z,53.80
2018-07-09T01:02:13.414Z,54.20
2018-07-09T01:04:42.235Z,54.10
2018-07-09T01:07:11.127Z,55.20
2018-07-09T01:09:39.978Z,55.40
2018-07-09T01:12:12.652Z,54.70
2018-07-09T01:14:42.135Z,54.70
2018-07-09T01:17:10.933Z,54.30
2018-07-09T01:19:40.135Z,55.00
2018-07-09T01:22:08.932Z,55.10
2018-07-09T01:24:37.885Z,54.60
2018-07-09T01:27:06.850Z,54.90
2018-07-09T01:29:35.702Z,55.10
2018-07-09T01:32:04.534Z,55.00
2018-07-09T01:34:33.376Z,55.00
2018-07-09T01:37:02.180Z,54.70
2018-07-09T01:39:31.045Z,54.20
2018-07-09T01:42:00.053Z,54.00
2018-07-09T01:44:28.882Z,55.00
2018-07-09T01:46:57.670Z,54.40
2018-07-09T01:49:26.501Z,53.80
2018-07-09T01:51:55.401Z,54.30
2018-07-09T01:54:24.169Z,54.20
2018-07-09T01:56:53.207Z,53.60
2018-07-09T01:59:22.004Z,54.10
2018-07-09T02:01:50.788Z,53.30
2018-07-09T02:04:19.724Z,53.80
2018-07-09T02:06:48.481Z,53.10
2018-07-09T02:09:17.294Z,53.80
2018-07-09T02:14:14.742Z,53.80
2018-07-09T02:16:43.551Z,53.90
2018-07-09T02:19:12.822Z,52.70
2018-07-09T02:21:41.776Z,53.20
2018-07-09T02:24:10.597Z,53.20
2018-07-09T02:26:39.427Z,53.30
2018-07-09T02:29:08.203Z,53.30
2018-07-09T02:31:36.977Z,53.80
2018-07-09T02:34:05.969Z,53.30
2018-07-09T02:36:34.797Z,53.30
2018-07-09T02:39:05.388Z,53.70
2018-07-09T02:41:34.331Z,53.20
2018-07-09T02:44:03.214Z,53.10
2018-07-09T02:46:32.008Z,52.70
2018-07-09T02:49:01.010Z,53.20
2018-07-09T02:51:29.762Z,53.20
2018-07-09T02:53:58.580Z,53.90
2018-07-09T02:56:27.412Z,53.90
2018-07-09T02:58:56.202Z,52.50
2018-07-09T03:01:25.276Z,52.70
2018-07-09T03:03:54.120Z,53.20
2018-07-09T03:06:23.118Z,53.10
2018-07-09T03:08:52.134Z,53.00
2018-07-09T03:11:21.317Z,51.80
2018-07-09T03:13:50.103Z,52.10
2018-07-09T03:16:18.939Z,52.30
2018-07-09T03:18:47.858Z,51.60
2018-07-09T03:21:16.684Z,50.80
2018-07-09T03:23:45.463Z,51.30
2018-07-09T03:26:14.291Z,51.40
2018-07-09T03:28:43.075Z,51.90
2018-07-09T03:31:11.899Z,51.30
2018-07-09T03:33:40.963Z,50.70
2018-07-09T03:36:09.761Z,51.60
2018-07-09T03:38:38.557Z,51.10
2018-07-09T03:41:07.568Z,51.10
2018-07-09T03:43:36.403Z,50.80
2018-07-09T03:46:05.302Z,51.20
2018-07-09T03:48:34.116Z,50.40
2018-07-09T03:51:02.936Z,50.30
2018-07-09T03:53:31.746Z,49.70
2018-07-09T03:58:29.098Z,50.10
2018-07-09T04:00:57.877Z,49.60
2018-07-09T04:03:26.832Z,49.10
2018-07-09T04:05:55.674Z,48.60
2018-07-09T04:08:24.494Z,49.80
2018-07-09T04:10:53.570Z,50.00
2018-07-09T04:13:22.368Z,49.20
2018-07-09T04:15:51.179Z,48.80
2018-07-09T04:23:21.159Z,50.40
2018-07-09T04:25:50.042Z,49.80
2018-07-09T04:28:18.932Z,50.60
2018-07-09T04:30:48.242Z,51.20
2018-07-09T04:35:45.452Z,50.70
2018-07-09T04:40:42.863Z,49.40
2018-07-09T04:45:40.192Z,48.00
2018-07-09T04:48:09.022Z,48.50
2018-07-09T04:50:37.789Z,48.10
2018-07-09T04:53:06.623Z,49.30
2018-07-09T04:55:35.650Z,46.70
2018-07-09T04:58:04.448Z,47.30
2018-07-09T05:00:33.298Z,47.20
2018-07-09T05:03:02.135Z,47.80
2018-07-09T05:05:31.428Z,47.60
2018-07-09T05:08:00.701Z,48.80
2018-07-09T05:10:29.978Z,47.30
2018-07-09T05:12:59.481Z,47.80
2018-07-09T05:15:28.530Z,47.60
2018-07-09T05:17:57.690Z,48.20
2018-07-09T05:20:26.782Z,46.60
2018-07-09T05:22:55.777Z,47.00
2018-07-09T05:27:54.554Z,48.10
2018-07-09T05:30:23.393Z,48.50
2018-07-09T05:32:52.391Z,46.90
2018-07-09T05:35:21.178Z,47.40
2018-07-09T05:40:18.557Z,45.90
2018-07-09T05:42:47.376Z,47.80
2018-07-09T05:45:16.182Z,46.70
2018-07-09T05:47:45.188Z,46.60
2018-07-09T05:50:14.086Z,47.30
2018-07-09T05:52:42.922Z,47.40
2018-07-09T05:55:11.832Z,47.50
2018-07-09T05:57:40.644Z,45.40
2018-07-09T06:00:09.530Z,46.60
2018-07-09T06:05:07.131Z,44.50
2018-07-09T06:07:35.954Z,45.40
2018-07-09T06:10:04.865Z,46.30
2018-07-09T06:12:33.794Z,43.50
2018-07-09T06:15:02.824Z,45.20
2018-07-09T06:17:31.643Z,45.70
2018-07-09T06:20:00.654Z,45.00
2018-07-09T06:22:29.474Z,43.80
2018-07-09T06:24:58.315Z,44.60
2018-07-09T06:27:27.154Z,43.70
2018-07-09T06:29:55.926Z,44.40
2018-07-09T06:32:25.019Z,42.60
2018-07-09T06:34:53.838Z,42.70
2018-07-09T06:37:22.690Z,42.60
2018-07-09T06:39:51.510Z,42.40
2018-07-09T06:42:20.277Z,42.00
2018-07-09T06:44:49.165Z,40.60
2018-07-09T06:47:18.081Z,41.00
2018-07-09T06:49:46.907Z,41.50
2018-07-09T06:52:15.730Z,40.60
2018-07-09T06:54:44.608Z,40.70
2018-07-09T06:57:13.396Z,39.30
2018-07-09T06:59:42.315Z,38.30
2018-07-09T07:02:11.375Z,38.40
2018-07-09T07:04:40.243Z,38.30
2018-07-09T07:07:09.094Z,38.10
2018-07-09T07:09:38.242Z,37.90
2018-07-09T07:12:07.147Z,37.10
2018-07-09T07:14:36.930Z,36.50
2018-07-09T07:17:06.346Z,34.00
2018-07-09T07:19:35.241Z,33.90
2018-07-09T07:22:04.074Z,33.40
2018-07-09T07:24:32.909Z,32.40
2018-07-09T07:27:01.713Z,31.50
2018-07-09T07:29:30.666Z,32.60
2018-07-09T07:31:59.903Z,31.40
2018-07-09T07:34:28.831Z,30.40
2018-07-09T07:36:57.676Z,29.70
2018-07-09T07:39:26.546Z,30.70
2018-07-09T07:41:55.419Z,29.40
2018-07-09T07:44:24.243Z,29.50
2018-07-09T07:46:53.482Z,29.40
2018-07-09T07:49:22.274Z,29.00
2018-07-09T07:51:51.068Z,28.20
2018-07-09T07:54:20.102Z,27.70
2018-07-09T07:56:48.926Z,27.20
2018-07-09T07:59:17.711Z,25.00
2018-07-09T08:01:46.582Z,25.50
2018-07-09T08:04:15.379Z,25.00
2018-07-09T08:06:44.171Z,25.90
2018-07-09T08:09:13.076Z,24.10
2018-07-09T08:11:48.559Z,23.40
2018-07-09T08:14:10.725Z,23.70
2018-07-09T08:16:39.776Z,24.10
2018-07-09T08:19:08.607Z,22.50
2018-07-09T08:21:37.491Z,22.20
2018-07-09T08:24:06.802Z,22.40
2018-07-09T08:26:35.697Z,22.00
2018-07-09T08:29:04.543Z,21.60
2018-07-09T08:31:33.605Z,23.00
2018-07-09T08:34:02.433Z,22.90
2018-07-09T08:36:31.227Z,22.10
2018-07-09T08:39:00.441Z,24.00
2018-07-09T08:41:29.259Z,25.50
2018-07-09T08:43:58.061Z,26.10
2018-07-09T08:46:26.891Z,26.20
2018-07-09T08:48:55.668Z,25.40
2018-07-09T08:51:24.460Z,25.90
2018-07-09T08:53:53.627Z,27.50
2018-07-09T08:56:22.456Z,28.20
2018-07-09T08:58:51.294Z,28.90
2018-07-09T09:01:20.311Z,28.30
2018-07-09T09:03:49.208Z,27.40
2018-07-09T09:06:17.983Z,27.80
2018-07-09T09:08:46.842Z,27.80
2018-07-09T09:11:15.637Z,28.90
2018-07-09T09:13:44.457Z,27.80
2018-07-09T09:16:13.355Z,29.60
2018-07-09T09:18:42.218Z,29.00
2018-07-09T09:21:11.189Z,29.60
2018-07-09T09:23:40.043Z,29.80
2018-07-09T09:26:08.864Z,29.50
2018-07-09T09:28:37.692Z,27.10
2018-07-09T09:31:07.470Z,26.90
2018-07-09T09:33:36.294Z,25.90
2018-07-09T09:36:05.223Z,26.70
2018-07-09T09:38:34.049Z,26.10
2018-07-09T09:41:02.869Z,25.60
2018-07-09T09:43:31.733Z,26.30
2018-07-09T09:46:00.965Z,25.90
2018-07-09T09:48:29.757Z,25.10
2018-07-09T09:50:58.509Z,25.10
2018-07-09T09:53:27.697Z,23.60
2018-07-09T09:55:56.500Z,23.80
2018-07-09T09:58:25.345Z,24.30
2018-07-09T10:00:54.530Z,22.00
2018-07-09T10:03:24.213Z,19.50
2018-07-09T10:05:53.044Z,19.40
2018-07-09T10:08:21.871Z,19.30
2018-07-09T10:10:50.732Z,18.00
2018-07-09T10:13:19.526Z,17.10
2018-07-09T10:15:48.349Z,16.40
2018-07-09T10:18:17.159Z,16.60
2018-07-09T10:20:46.382Z,17.20
2018-07-09T10:23:15.602Z,17.60
2018-07-09T10:25:44.366Z,17.70
2018-07-09T10:30:41.733Z,18.60
2018-07-09T10:33:10.581Z,19.60
2018-07-09T10:35:39.370Z,21.00
2018-07-09T10:38:08.576Z,21.90
2018-07-09T10:40:37.379Z,21.60
2018-07-09T10:43:06.217Z,21.60
2018-07-09T10:45:35.105Z,20.50
2018-07-09T10:48:03.932Z,18.90
2018-07-09T10:50:32.748Z,19.40
2018-07-09T10:53:01.755Z,18.40
2018-07-09T10:55:30.608Z,18.20
2018-07-09T10:57:59.492Z,18.70
2018-07-09T11:00:28.485Z,19.60
2018-07-09T11:02:57.373Z,20.20
2018-07-09T11:05:26.141Z,19.50
2018-07-09T11:07:54.941Z,19.80
2018-07-09T11:10:23.756Z,21.40
2018-07-09T11:12:52.623Z,21.30
2018-07-09T11:15:21.474Z,22.10
2018-07-09T11:17:50.271Z,22.20
2018-07-09T11:20:19.131Z,23.20
2018-07-09T11:22:48.003Z,23.60
2018-07-09T11:25:16.885Z,23.10
2018-07-09T11:27:45.789Z,23.00
2018-07-09T11:30:14.625Z,23.60
2018-07-09T11:32:43.445Z,23.80
2018-07-09T11:35:12.251Z,24.00
2018-07-09T11:37:41.135Z,24.20
2018-07-09T11:40:10.015Z,24.70
2018-07-09T11:42:38.825Z,25.70
2018-07-09T11:45:07.962Z,25.00
2018-07-09T11:47:36.794Z,25.20
2018-07-09T11:50:05.607Z,24.80
2018-07-09T11:52:34.455Z,24.70
2018-07-09T11:55:03.288Z,25.60
2018-07-09T11:57:32.106Z,26.80
2018-07-09T12:00:00.984Z,27.20
2018-07-09T12:02:29.888Z,28.30
2018-07-09T12:04:58.753Z,27.80
2018-07-09T12:07:27.609Z,27.80
2018-07-09T12:09:56.427Z,28.90
2018-07-09T12:12:25.254Z,28.10
2018-07-09T12:14:54.223Z,28.50
2018-07-09T12:17:23.017Z,28.40
2018-07-09T12:19:51.818Z,28.20
2018-07-09T12:22:20.630Z,29.10
2018-07-09T12:24:49.444Z,28.90
2018-07-09T12:27:18.241Z,29.30
2018-07-09T12:29:47.088Z,29.90
2018-07-09T12:32:15.934Z,30.20
2018-07-09T12:34:44.846Z,29.60
2018-07-09T12:37:13.713Z,30.30
2018-07-09T12:39:42.539Z,29.90
2018-07-09T12:42:11.362Z,30.70
2018-07-09T12:44:40.602Z,31.40
2018-07-09T12:47:09.470Z,32.30
2018-07-09T12:49:38.271Z,30.90
2018-07-09T12:52:07.762Z,31.00
2018-07-09T12:54:36.595Z,29.90
2018-07-09T12:57:05.430Z,30.10
2018-07-09T12:59:34.273Z,31.50
2018-07-09T13:02:03.093Z,32.40
2018-07-09T13:04:31.938Z,32.70
2018-07-09T13:07:00.841Z,32.60
2018-07-09T13:09:29.655Z,32.70
2018-07-09T13:11:58.488Z,30.20
2018-07-09T13:14:27.667Z,30.00
2018-07-09T13:16:56.432Z,30.60
2018-07-09T13:19:25.234Z,30.00
2018-07-09T13:21:54.107Z,31.40
2018-07-09T13:24:22.923Z,32.30
2018-07-09T13:26:51.740Z,33.10
2018-07-09T13:29:20.973Z,32.20
2018-07-09T13:31:49.796Z,32.00
2018-07-09T13:34:18.689Z,31.40
2018-07-09T13:36:47.989Z,29.70
2018-07-09T13:39:16.805Z,30.00
2018-07-09T13:44:14.160Z,30.30
2018-07-09T13:46:43.011Z,31.40
2018-07-09T13:49:11.815Z,31.30
2018-07-09T13:51:40.774Z,32.00
2018-07-09T13:54:09.660Z,32.30
2018-07-09T13:56:38.542Z,33.30
2018-07-09T13:59:07.414Z,33.10
2018-07-09T14:01:36.274Z,33.40
2018-07-09T14:04:05.148Z,34.20
2018-07-09T14:06:33.942Z,33.30
2018-07-09T14:09:02.794Z,34.30
2018-07-09T14:11:31.581Z,33.70
2018-07-09T14:14:00.431Z,33.60
2018-07-09T14:16:29.267Z,33.20
2018-07-09T14:18:58.174Z,32.20
2018-07-09T14:21:27.149Z,32.30
2018-07-09T14:23:55.913Z,32.00
2018-07-09T14:26:24.720Z,32.70
2018-07-09T14:28:53.567Z,32.70
2018-07-09T14:31:22.402Z,34.10
2018-07-09T14:33:51.233Z,33.90
2018-07-09T14:36:20.037Z,33.40
2018-07-09T14:38:48.862Z,34.30
2018-07-09T14:41:17.660Z,34.90
2018-07-09T14:43:46.482Z,35.40
2018-07-09T14:46:15.246Z,34.70
2018-07-09T14:48:44.050Z,34.90
2018-07-09T14:51:13.090Z,34.40
2018-07-09T14:53:41.963Z,35.00
2018-07-09T14:56:10.786Z,35.30
2018-07-09T14:58:39.791Z,35.20
2018-07-09T15:01:08.574Z,35.40
2018-07-09T15:03:37.371Z,35.70
2018-07-09T15:06:06.499Z,35.30
2018-07-09T15:11:03.666Z,36.30
2018-07-09T15:13:33.440Z,36.40
2018-07-09T15:18:30.739Z,37.40
2018-07-09T15:20:59.582Z,37.30
2018-07-09T15:23:28.393Z,37.20
2018-07-09T15:25:57.194Z,38.00
2018-07-09T15:28:26.001Z,37.60
2018-07-09T15:30:54.813Z,38.00
2018-07-09T15:33:23.595Z,38.40
2018-07-09T15:35:52.409Z,39.20
2018-07-09T15:38:21.214Z,38.50
2018-07-09T15:40:50.024Z,38.40
2018-07-09T15:43:28.938Z,38.40
2018-07-09T15:48:26.141Z,38.40
2018-07-09T15:50:55.097Z,38.30
2018-07-09T15:53:23.913Z,38.30
2018-07-09T15:55:52.753Z,38.90
2018-07-09T15:58:21.695Z,38.80
2018-07-09T16:00:50.514Z,39.40
2018-07-09T16:03:19.338Z,39.20
2018-07-09T16:05:48.670Z,38.30
2018-07-09T16:08:17.604Z,38.20
2018-07-09T16:13:14.840Z,39.60
2018-07-09T16:15:43.664Z,39.90
2018-07-09T16:18:12.445Z,40.50
2018-07-09T16:20:41.266Z,39.00
2018-07-09T16:23:10.107Z,39.60
2018-07-09T16:25:38.981Z,38.60
2018-07-09T16:30:36.228Z,38.20
2018-07-09T16:33:05.016Z,38.20
2018-07-09T16:35:33.861Z,37.90
2018-07-09T16:38:02.798Z,38.40
2018-07-09T16:40:31.657Z,38.10
2018-07-09T16:43:00.628Z,40.20
2018-07-09T16:45:29.744Z,41.40
2018-07-09T16:47:58.570Z,42.10
2018-07-09T16:50:27.429Z,42.50
2018-07-09T16:52:56.352Z,42.90
2018-07-09T16:55:25.140Z,43.50
2018-07-09T16:57:54.020Z,42.70
2018-07-09T17:00:23.708Z,43.10
2018-07-09T17:02:52.526Z,43.30
2018-07-09T17:05:21.827Z,43.00
2018-07-09T17:07:50.687Z,43.30
2018-07-09T17:10:19.801Z,43.10
2018-07-09T17:15:17.357Z,43.10
2018-07-09T17:17:46.178Z,43.60
2018-07-09T17:20:15.085Z,43.70
2018-07-09T17:22:43.847Z,43.70
2018-07-09T17:27:41.483Z,44.10
2018-07-09T17:30:10.312Z,44.30
2018-07-09T17:32:39.173Z,44.80
2018-07-09T17:35:08.319Z,45.00
2018-07-09T17:37:37.191Z,44.90
2018-07-09T17:40:06.108Z,45.50
2018-07-09T17:42:34.978Z,45.50
2018-07-09T17:45:04.105Z,45.90
2018-07-09T17:47:33.004Z,46.10
2018-07-09T17:50:02.046Z,46.00
2018-07-09T17:54:59.259Z,45.90
2018-07-09T17:57:28.217Z,46.50
2018-07-09T17:59:57.048Z,46.20
2018-07-09T18:02:25.870Z,45.40
2018-07-09T18:04:54.929Z,45.80
2018-07-09T18:07:23.763Z,44.60
2018-07-09T18:12:22.585Z,45.00
2018-07-09T18:14:51.559Z,45.70
2018-07-09T18:17:20.376Z,46.60
2018-07-09T18:19:49.242Z,46.00
2018-07-09T18:22:18.125Z,46.50
2018-07-09T18:27:15.836Z,47.00
2018-07-09T18:29:44.656Z,46.80
2018-07-09T18:32:13.492Z,46.20
2018-07-09T18:34:42.338Z,46.90
2018-07-09T18:37:11.173Z,47.10
2018-07-09T18:39:39.969Z,47.40
2018-07-09T18:42:08.842Z,46.50
2018-07-09T18:44:37.662Z,47.10
2018-07-09T18:47:06.627Z,47.50
2018-07-09T18:49:35.491Z,46.70
2018-07-09T18:52:04.398Z,48.90
2018-07-09T18:54:33.241Z,49.30
2018-07-09T18:57:02.113Z,48.80
2018-07-09T19:01:59.390Z,49.90
2018-07-09T19:04:28.266Z,49.40
2018-07-09T19:06:59.910Z,49.40
2018-07-09T19:09:29.416Z,49.40
2018-07-09T19:11:59.881Z,49.20
2018-07-09T19:14:35.861Z,49.90
2018-07-09T19:18:26.551Z,50.40
2018-07-09T19:21:36.538Z,50.10
2018-07-09T19:24:05.316Z,50.80
2018-07-09T19:26:32.751Z,51.30
2018-07-09T19:29:00.409Z,51.70
2018-07-09T19:31:27.901Z,52.00
2018-07-09T19:33:55.390Z,52.60
2018-07-09T19:36:23.195Z,52.10
2018-07-09T19:38:50.683Z,52.40
2018-07-09T19:41:18.205Z,52.30
2018-07-09T19:43:45.739Z,56.10
2018-07-09T19:48:41.074Z,56.80
2018-07-09T19:51:08.621Z,57.00
2018-07-09T19:53:36.124Z,58.90
2018-07-09T19:56:03.604Z,59.40
2018-07-09T19:58:31.121Z,57.00
2018-07-09T20:00:58.594Z,58.20
2018-07-09T20:03:26.164Z,56.60
2018-07-09T20:05:53.655Z,57.40
2018-07-09T20:08:21.228Z,58.60
2018-07-09T20:10:54.116Z,58.90
2018-07-09T20:13:26.982Z,60.00
2018-07-09T20:16:00.087Z,60.70
2018-07-09T20:18:27.592Z,59.80
2018-07-09T20:20:55.156Z,60.10
2018-07-09T20:23:22.824Z,60.90
2018-07-09T20:25:50.347Z,61.40
2018-07-09T20:28:17.921Z,61.80
2018-07-09T20:30:45.439Z,62.40
2018-07-09T20:33:12.955Z,60.50
2018-07-09T20:35:40.490Z,60.30
2018-07-09T20:38:08.227Z,62.00
2018-07-09T20:40:35.734Z,62.50
2018-07-09T20:43:03.245Z,60.00
2018-07-09T20:45:30.863Z,60.40
2018-07-09T20:47:58.357Z,61.20
2018-07-09T20:50:25.855Z,61.60
2018-07-09T20:52:53.359Z,62.90
2018-07-09T20:55:20.834Z,63.50
2018-07-09T20:57:48.334Z,63.10
2018-07-09T21:00:15.820Z,61.30
2018-07-09T21:02:43.300Z,61.40
2018-07-09T21:05:10.774Z,61.80
2018-07-09T21:07:38.280Z,61.20
2018-07-09T21:10:05.777Z,61.90
2018-07-09T21:12:37.452Z,62.40
2018-07-09T21:15:04.982Z,61.40
2018-07-09T21:17:32.455Z,62.30
2018-07-09T21:19:59.939Z,62.40
2018-07-09T21:22:27.582Z,62.60
2018-07-09T21:24:55.057Z,62.80
2018-07-09T21:27:22.648Z,63.20
2018-07-09T21:29:50.161Z,63.10
2018-07-09T21:32:17.665Z,63.60
2018-07-09T21:34:45.141Z,63.90
2018-07-09T21:37:12.812Z,64.50
2018-07-09T21:39:40.319Z,64.50
2018-07-09T21:42:07.794Z,64.30
2018-07-09T21:44:35.752Z,64.20
2018-07-09T21:47:03.256Z,64.30
2018-07-09T21:49:30.778Z,63.00
2018-07-09T21:51:58.340Z,63.00
2018-07-09T21:54:25.828Z,63.60
2018-07-09T21:56:53.313Z,62.80
2018-07-09T21:59:20.929Z,63.50
2018-07-09T22:01:48.401Z,63.80
2018-07-09T22:04:15.884Z,64.30
2018-07-09T22:06:43.439Z,63.80
2018-07-09T22:09:10.996Z,64.50
2018-07-09T22:11:38.476Z,63.20
2018-07-09T22:14:06.318Z,64.00
2018-07-09T22:16:33.810Z,63.80
2018-07-09T22:19:01.294Z,64.60
2018-07-09T22:21:29.204Z,63.40
2018-07-09T22:23:56.698Z,63.30
2018-07-09T22:28:52.123Z,63.10
2018-07-09T22:31:20.979Z,63.20
2018-07-09T22:33:49.795Z,63.00
2018-07-09T22:36:18.690Z,63.10
2018-07-09T22:41:15.953Z,62.50
2018-07-09T22:43:55.786Z,63.10
2018-07-09T22:46:24.576Z,62.40
2018-07-09T22:48:53.376Z,62.80
2018-07-09T22:51:22.333Z,64.00
2018-07-09T22:53:51.102Z,63.60
2018-07-09T22:56:19.901Z,63.00
2018-07-09T22:58:49.261Z,63.50
2018-07-09T23:01:18.080Z,62.50
2018-07-09T23:03:46.877Z,62.50
2018-07-09T23:06:15.826Z,62.70
2018-07-09T23:08:44.622Z,63.30
2018-07-09T23:12:24.945Z,63.10
2018-07-09T23:17:10.726Z,63.50
2018-07-09T23:21:59.146Z,64.30
2018-07-09T23:24:27.123Z,64.40
2018-07-09T23:26:55.122Z,65.10
2018-07-09T23:29:22.639Z,64.20
2018-07-09T23:31:50.410Z,64.10
2018-07-09T23:34:18.594Z,64.00
2018-07-09T23:39:14.125Z,62.30
2018-07-09T23:41:41.621Z,62.40
2018-07-09T23:44:09.134Z,62.50
2018-07-09T23:46:36.605Z,62.70
2018-07-09T23:49:04.073Z,62.00
2018-07-09T23:51:31.588Z,62.00
2018-07-09T23:53:59.057Z,62.00
2018-07-09T23:59:39.967Z,62.30
